createdAt,value
2023-01-08T00:01:04.919Z,59.43
2023-01-08T00:04:08.800Z,60.39
2023-01-08T00:07:14.065Z,59.81
2023-01-08T00:10:18.025Z,60.10
2023-01-08T00:13:21.815Z,59.47
2023-01-08T00:16:25.716Z,59.50
2023-01-08T00:19:29.888Z,59.55
2023-01-08T00:22:34.945Z,59.73
2023-01-08T00:25:38.571Z,59.41
2023-01-08T00:28:43.186Z,59.52
2023-01-08T00:31:46.964Z,59.60
2023-01-08T00:34:50.748Z,60.06
2023-01-08T00:37:55.944Z,60.01
2023-01-08T00:40:59.758Z,59.56
2023-01-08T00:44:03.623Z,61.01
2023-01-08T00:47:07.612Z,62.41
2023-01-08T00:50:12.049Z,60.27
2023-01-08T00:53:17.315Z,60.44
2023-01-08T00:56:21.211Z,61.74
2023-01-08T00:59:25.053Z,61.90
2023-01-08T01:02:29.253Z,61.77
2023-01-08T01:05:33.585Z,61.40
2023-01-08T01:08:39.063Z,62.00
2023-01-08T01:11:42.779Z,61.15
2023-01-08T01:14:46.525Z,61.31
2023-01-08T01:17:50.228Z,61.10
2023-01-08T01:20:53.884Z,60.56
2023-01-08T01:24:01.255Z,60.48
2023-01-08T01:27:04.920Z,61.13
2023-01-08T01:30:10.009Z,60.67
2023-01-08T01:33:13.666Z,60.77
2023-01-08T01:36:18.845Z,60.28
2023-01-08T01:39:27.885Z,60.93
2023-01-08T01:42:44.497Z,61.74
2023-01-08T01:45:48.208Z,60.91
2023-01-08T01:48:54.992Z,60.73
2023-01-08T01:52:02.685Z,60.60
2023-01-08T01:55:11.703Z,60.47
2023-01-08T01:58:18.973Z,60.38
2023-01-08T02:01:23.729Z,61.64
2023-01-08T02:04:27.404Z,61.56
2023-01-08T02:07:41.209Z,61.80
2023-01-08T02:10:52.859Z,61.84
2023-01-08T02:14:06.075Z,61.09
2023-01-08T02:17:14.879Z,60.73
2023-01-08T02:20:22.615Z,60.38
2023-01-08T02:23:35.550Z,60.89
2023-01-08T02:26:40.561Z,60.72
2023-01-08T02:29:44.436Z,60.53
2023-01-08T02:32:48.092Z,61.79
2023-01-08T02:35:56.314Z,61.71
2023-01-08T02:39:10.313Z,62.36
2023-01-08T02:42:21.714Z,62.26
2023-01-08T02:45:37.127Z,61.60
2023-01-08T02:48:46.795Z,61.26
2023-01-08T02:51:53.115Z,60.65
2023-01-08T02:54:58.603Z,60.74
2023-01-08T02:58:05.139Z,61.08
2023-01-08T03:01:11.517Z,61.44
2023-01-08T03:04:19.114Z,62.89
2023-01-08T03:07:23.199Z,62.24
2023-01-08T03:10:30.772Z,62.23
2023-01-08T03:13:40.014Z,62.63
2023-01-08T03:16:48.994Z,62.18
2023-01-08T03:19:57.604Z,61.53
2023-01-08T03:23:04.590Z,61.21
2023-01-08T03:26:09.149Z,60.75
2023-01-08T03:29:18.539Z,61.38
2023-01-08T03:32:24.532Z,61.08
2023-01-08T03:35:29.376Z,61.31
2023-01-08T03:38:37.890Z,60.33
2023-01-08T03:41:41.612Z,60.59
2023-01-08T03:44:46.867Z,60.02
2023-01-08T03:47:51.885Z,59.92
2023-01-08T03:50:55.623Z,60.10
2023-01-08T03:54:01.265Z,59.92
2023-01-08T03:57:05.063Z,60.38
2023-01-08T04:00:11.978Z,60.73
2023-01-08T04:03:15.575Z,61.23
2023-01-08T04:06:19.137Z,61.09
2023-01-08T04:09:22.744Z,60.87
2023-01-08T04:12:26.353Z,61.36
2023-01-08T04:15:31.502Z,60.80
2023-01-08T04:18:35.720Z,61.24
2023-01-08T04:21:39.876Z,61.01
2023-01-08T04:24:43.627Z,61.40
2023-01-08T04:27:47.133Z,60.88
2023-01-08T04:30:52.238Z,61.03
2023-01-08T04:33:55.806Z,61.30
2023-01-08T04:36:59.508Z,61.00
2023-01-08T04:40:03.199Z,60.91
2023-01-08T04:43:06.825Z,61.60
2023-01-08T04:46:12.076Z,61.24
2023-01-08T04:49:16.076Z,61.53
2023-01-08T04:52:19.738Z,60.84
2023-01-08T04:55:23.330Z,61.46
2023-01-08T04:58:26.935Z,60.86
2023-01-08T05:01:32.144Z,61.76
2023-01-08T05:04:35.823Z,61.47
2023-01-08T05:07:39.469Z,61.42
2023-01-08T05:10:43.081Z,61.61
2023-01-08T05:13:50.229Z,61.70
2023-01-08T05:16:55.308Z,61.61
2023-01-08T05:19:58.864Z,61.23
2023-01-08T05:23:03.016Z,61.39
2023-01-08T05:26:08.387Z,60.98
2023-01-08T05:29:12.135Z,60.92
2023-01-08T05:32:19.124Z,61.65
2023-01-08T05:35:22.786Z,62.20
2023-01-08T05:38:26.462Z,62.16
2023-01-08T05:41:30.015Z,62.77
2023-01-08T05:44:33.720Z,62.51
2023-01-08T05:47:38.703Z,62.72
2023-01-08T05:50:42.541Z,62.34
2023-01-08T05:53:48.236Z,62.73
2023-01-08T05:56:51.835Z,62.36
2023-01-08T05:59:55.453Z,61.82
2023-01-08T06:03:00.642Z,61.48
2023-01-08T06:06:06.591Z,60.87
2023-01-08T06:09:10.525Z,61.18
2023-01-08T06:12:14.179Z,61.22
2023-01-08T06:15:17.931Z,60.96
2023-01-08T06:18:23.027Z,60.81
2023-01-08T06:21:26.681Z,60.52
2023-01-08T06:24:30.319Z,60.09
2023-01-08T06:27:33.867Z,58.83
2023-01-08T06:30:37.475Z,58.29
2023-01-08T06:33:42.560Z,57.89
2023-01-08T06:36:46.163Z,57.16
2023-01-08T06:39:49.771Z,56.39
2023-01-08T06:42:53.745Z,56.07
2023-01-08T06:45:58.688Z,56.06
2023-01-08T06:49:03.969Z,56.17
2023-01-08T06:52:07.844Z,55.44
2023-01-08T06:55:11.993Z,55.60
2023-01-08T06:58:15.713Z,55.83
2023-01-08T07:01:19.962Z,55.97
2023-01-08T07:04:25.559Z,57.26
2023-01-08T07:07:29.445Z,57.67
2023-01-08T07:10:33.296Z,57.69
2023-01-08T07:13:37.109Z,58.35
2023-01-08T07:16:40.953Z,58.29
2023-01-08T07:19:46.073Z,58.32
2023-01-08T07:22:49.804Z,58.48
2023-01-08T07:25:53.599Z,59.32
2023-01-08T07:28:57.373Z,59.49
2023-01-08T07:32:01.078Z,57.96
2023-01-08T07:35:06.927Z,56.95
2023-01-08T07:38:10.739Z,57.09
2023-01-08T07:41:14.634Z,55.34
2023-01-08T07:44:18.552Z,55.47
2023-01-08T07:47:22.470Z,55.11
2023-01-08T07:50:28.731Z,54.62
2023-01-08T07:53:32.696Z,52.75
2023-01-08T07:56:36.530Z,53.30
2023-01-08T07:59:40.374Z,53.48
2023-01-08T08:02:44.425Z,52.33
2023-01-08T08:05:49.724Z,51.43
2023-01-08T08:08:53.514Z,50.73
2023-01-08T08:11:57.498Z,48.94
2023-01-08T08:15:01.282Z,48.76
2023-01-08T08:18:05.714Z,49.49
2023-01-08T08:21:11.046Z,50.12
2023-01-08T08:24:14.781Z,48.42
2023-01-08T08:27:18.592Z,47.71
2023-01-08T08:30:22.384Z,48.19
2023-01-08T08:33:26.145Z,48.11
2023-01-08T08:36:32.498Z,46.80
2023-01-08T08:39:36.448Z,46.26
2023-01-08T08:42:40.234Z,47.03
2023-01-08T08:45:44.312Z,45.80
2023-01-08T08:48:48.378Z,46.86
2023-01-08T08:51:53.707Z,46.02
2023-01-08T08:54:57.507Z,46.72
2023-01-08T08:58:06.273Z,45.77
2023-01-08T09:01:10.068Z,45.52
2023-01-08T09:04:13.991Z,44.04
2023-01-08T09:07:19.354Z,45.23
2023-01-08T09:10:23.375Z,44.49
2023-01-08T09:13:27.104Z,43.94
2023-01-08T09:16:30.980Z,44.63
2023-01-08T09:19:34.825Z,44.11
2023-01-08T09:22:40.153Z,43.86
2023-01-08T09:25:44.000Z,43.49
2023-01-08T09:28:47.868Z,42.81
2023-01-08T09:31:51.891Z,42.50
2023-01-08T09:34:55.763Z,42.72
2023-01-08T09:38:01.194Z,42.95
2023-01-08T09:41:08.312Z,42.35
2023-01-08T09:44:17.287Z,42.28
2023-01-08T09:47:26.833Z,41.71
2023-01-08T09:50:33.333Z,41.70
2023-01-08T09:53:38.725Z,41.00
2023-01-08T09:56:43.243Z,41.34
2023-01-08T09:59:49.034Z,40.79
2023-01-08T10:02:54.656Z,41.71
2023-01-08T10:05:58.635Z,41.75
2023-01-08T10:09:05.417Z,40.88
2023-01-08T10:12:14.433Z,40.70
2023-01-08T10:15:20.747Z,40.87
2023-01-08T10:18:27.364Z,40.77
2023-01-08T10:21:33.395Z,40.66
2023-01-08T10:24:40.894Z,41.21
2023-01-08T10:27:50.346Z,40.42
2023-01-08T10:30:56.132Z,40.80
2023-01-08T10:34:10.961Z,40.85
2023-01-08T10:37:24.694Z,40.18
2023-01-08T10:40:38.583Z,39.95
2023-01-08T10:43:52.354Z,39.29
2023-01-08T10:47:00.404Z,39.10
2023-01-08T10:50:07.033Z,40.29
2023-01-08T10:53:26.071Z,39.00
2023-01-08T10:56:41.843Z,39.70
2023-01-08T10:59:45.658Z,39.51
2023-01-08T11:02:50.853Z,39.63
2023-01-08T11:05:54.674Z,39.41
2023-01-08T11:09:01.464Z,38.68
2023-01-08T11:12:22.713Z,38.27
2023-01-08T11:15:32.751Z,38.64
2023-01-08T11:18:45.393Z,38.96
2023-01-08T11:21:57.953Z,39.09
2023-01-08T11:25:01.746Z,38.69
2023-01-08T11:28:08.701Z,39.04
2023-01-08T11:31:16.704Z,41.12
2023-01-08T11:34:26.519Z,41.60
2023-01-08T11:37:34.913Z,40.69
2023-01-08T11:40:47.754Z,40.91
2023-01-08T11:44:06.777Z,40.11
2023-01-08T11:47:18.464Z,39.24
2023-01-08T11:50:29.177Z,39.37
2023-01-08T11:53:40.018Z,39.32
2023-01-08T11:57:05.457Z,40.39
2023-01-08T12:00:39.675Z,40.97
2023-01-08T12:03:48.680Z,40.43
2023-01-08T12:07:01.491Z,40.64
2023-01-08T12:10:15.419Z,40.21
2023-01-08T12:13:36.152Z,40.26
2023-01-08T12:16:56.087Z,39.76
2023-01-08T12:20:13.847Z,40.88
2023-01-08T12:23:32.356Z,40.00
2023-01-08T12:26:46.834Z,40.41
2023-01-08T12:30:05.323Z,40.47
2023-01-08T12:33:14.967Z,40.03
2023-01-08T12:36:28.597Z,40.64
2023-01-08T12:39:40.424Z,40.67
2023-01-08T12:42:47.392Z,41.04
2023-01-08T12:45:58.525Z,40.34
2023-01-08T12:49:06.316Z,41.53
2023-01-08T12:52:18.123Z,41.56
2023-01-08T12:55:33.454Z,41.28
2023-01-08T12:58:50.216Z,41.32
2023-01-08T13:02:02.819Z,41.58
2023-01-08T13:05:15.652Z,40.92
2023-01-08T13:08:34.467Z,41.31
2023-01-08T13:11:42.495Z,40.90
2023-01-08T13:14:51.784Z,41.30
2023-01-08T13:17:57.755Z,41.29
2023-01-08T13:21:04.585Z,41.19
2023-01-08T13:24:27.026Z,41.07
2023-01-08T13:27:31.505Z,41.12
2023-01-08T13:30:39.064Z,41.45
2023-01-08T13:33:43.582Z,41.39
2023-01-08T13:36:58.767Z,40.91
2023-01-08T13:40:04.274Z,40.60
2023-01-08T13:43:14.806Z,40.98
2023-01-08T13:46:20.727Z,40.72
2023-01-08T13:49:30.296Z,40.73
2023-01-08T13:52:43.193Z,40.82
2023-01-08T13:55:57.286Z,40.63
2023-01-08T13:59:01.232Z,41.02
2023-01-08T14:02:05.969Z,40.97
2023-01-08T14:05:20.993Z,41.42
2023-01-08T14:08:27.645Z,41.45
2023-01-08T14:11:34.106Z,41.55
2023-01-08T14:14:40.736Z,41.83
2023-01-08T14:17:46.106Z,42.66
2023-01-08T14:20:52.633Z,43.07
2023-01-08T14:23:58.115Z,43.88
2023-01-08T14:27:02.264Z,43.99
2023-01-08T14:30:17.560Z,44.41
2023-01-08T14:33:26.104Z,44.91
2023-01-08T14:36:29.935Z,44.80
2023-01-08T14:39:38.606Z,44.86
2023-01-08T14:42:47.463Z,45.49
2023-01-08T14:45:54.134Z,45.59
2023-01-08T14:48:58.774Z,45.85
2023-01-08T14:52:04.174Z,45.92
2023-01-08T14:55:18.867Z,46.18
2023-01-08T14:58:25.746Z,46.46
2023-01-08T15:01:31.758Z,46.74
2023-01-08T15:04:35.764Z,46.80
2023-01-08T15:07:39.636Z,46.83
2023-01-08T15:10:44.882Z,47.05
2023-01-08T15:13:50.535Z,47.03
2023-01-08T15:16:56.343Z,47.31
2023-01-08T15:20:02.210Z,47.36
2023-01-08T15:23:06.137Z,47.72
2023-01-08T15:26:16.109Z,48.11
2023-01-08T15:29:21.664Z,48.12
2023-01-08T15:32:28.962Z,48.59
2023-01-08T15:35:32.744Z,48.96
2023-01-08T15:38:36.523Z,48.85
2023-01-08T15:41:59.837Z,49.00
2023-01-08T15:45:03.809Z,49.04
2023-01-08T15:48:08.647Z,49.50
2023-01-08T15:51:12.514Z,49.73
2023-01-08T15:54:16.915Z,49.79
2023-01-08T15:57:22.404Z,49.51
2023-01-08T16:00:26.314Z,50.07
2023-01-08T16:03:30.943Z,49.91
2023-01-08T16:06:36.352Z,50.31
2023-01-08T16:09:40.173Z,50.83
2023-01-08T16:12:45.900Z,50.83
2023-01-08T16:15:49.701Z,51.13
2023-01-08T16:18:53.897Z,50.97
2023-01-08T16:21:57.727Z,51.18
2023-01-08T16:25:01.475Z,51.12
2023-01-08T16:28:07.094Z,51.15
2023-01-08T16:31:11.477Z,51.50
2023-01-08T16:34:15.793Z,51.74
2023-01-08T16:37:19.625Z,51.80
2023-01-08T16:40:23.425Z,51.77
2023-01-08T16:43:30.175Z,51.69
2023-01-08T16:46:34.092Z,51.88
2023-01-08T16:49:38.407Z,52.19
2023-01-08T16:52:43.272Z,52.40
2023-01-08T16:55:46.937Z,52.45
2023-01-08T16:58:53.595Z,52.76
2023-01-08T17:01:57.427Z,53.29
2023-01-08T17:05:01.331Z,53.37
2023-01-08T17:08:05.435Z,53.45
2023-01-08T17:11:11.539Z,53.96
2023-01-08T17:14:17.065Z,54.04
2023-01-08T17:17:20.869Z,54.08
2023-01-08T17:20:24.754Z,54.19
2023-01-08T17:23:29.127Z,54.36
2023-01-08T17:26:32.992Z,53.87
2023-01-08T17:29:38.327Z,53.84
2023-01-08T17:32:42.374Z,54.17
2023-01-08T17:35:46.393Z,53.95
2023-01-08T17:38:50.939Z,54.60
2023-01-08T17:42:11.795Z,54.76
2023-01-08T17:45:17.564Z,55.28
2023-01-08T17:48:21.275Z,55.80
2023-01-08T17:51:24.953Z,55.94
2023-01-08T17:54:29.038Z,56.29
2023-01-08T17:57:32.973Z,56.24
2023-01-08T18:00:38.369Z,56.38
2023-01-08T18:03:42.156Z,56.41
2023-01-08T18:06:46.355Z,56.91
2023-01-08T18:09:52.990Z,57.31
2023-01-08T18:12:56.724Z,57.23
2023-01-08T18:16:04.982Z,57.77
2023-01-08T18:19:08.763Z,57.60
2023-01-08T18:22:12.535Z,58.21
2023-01-08T18:25:16.343Z,59.05
2023-01-08T18:28:20.603Z,60.09
2023-01-08T18:31:26.143Z,59.89
2023-01-08T18:34:29.943Z,60.44
2023-01-08T18:37:34.625Z,61.54
2023-01-08T18:40:38.333Z,61.51
2023-01-08T18:43:42.184Z,62.09
2023-01-08T18:46:48.281Z,61.98
2023-01-08T18:49:53.433Z,61.91
2023-01-08T18:52:57.315Z,61.59
2023-01-08T18:56:01.694Z,61.19
2023-01-08T18:59:06.729Z,60.70
2023-01-08T19:02:19.473Z,60.80
2023-01-08T19:05:23.729Z,60.71
2023-01-08T19:08:27.584Z,59.84
2023-01-08T19:11:31.363Z,60.02
2023-01-08T19:14:35.196Z,59.95
2023-01-08T19:17:40.905Z,60.22
2023-01-08T19:20:46.454Z,61.20
2023-01-08T19:23:50.628Z,61.62
2023-01-08T19:26:54.490Z,62.37
2023-01-08T19:29:58.176Z,61.38
2023-01-08T19:33:03.480Z,61.22
2023-01-08T19:36:12.935Z,61.63
2023-01-08T19:39:16.775Z,62.24
2023-01-08T19:42:38.124Z,61.28
2023-01-08T19:45:41.914Z,62.59
2023-01-08T19:48:47.403Z,62.26
2023-01-08T19:51:51.192Z,62.15
2023-01-08T19:54:55.451Z,61.58
2023-01-08T19:57:59.973Z,61.82
2023-01-08T20:01:10.353Z,61.91
2023-01-08T20:04:15.993Z,62.94
2023-01-08T20:07:19.794Z,61.48
2023-01-08T20:10:23.603Z,62.42
2023-01-08T20:13:27.496Z,62.55
2023-01-08T20:16:31.611Z,62.55
2023-01-08T20:19:37.645Z,63.05
2023-01-08T20:22:41.556Z,62.43
2023-01-08T20:25:45.792Z,62.56
2023-01-08T20:28:50.752Z,62.21
2023-01-08T20:31:59.606Z,62.29
2023-01-08T20:35:05.007Z,62.32
2023-01-08T20:38:09.244Z,62.64
2023-01-08T20:41:13.662Z,61.86
2023-01-08T20:44:17.683Z,61.73
2023-01-08T20:47:21.583Z,60.96
2023-01-08T20:50:26.992Z,60.27
2023-01-08T20:53:31.093Z,60.33
2023-01-08T20:56:35.382Z,60.73
2023-01-08T20:59:39.202Z,60.96
2023-01-08T21:02:43.961Z,60.51
2023-01-08T21:05:49.471Z,60.08
2023-01-08T21:08:54.770Z,60.90
2023-01-08T21:11:58.615Z,61.44
2023-01-08T21:15:02.451Z,61.31
2023-01-08T21:18:06.558Z,61.27
2023-01-08T21:21:13.603Z,61.04
2023-01-08T21:24:17.391Z,61.33
2023-01-08T21:27:21.274Z,64.73
2023-01-08T21:30:25.193Z,62.85
2023-01-08T21:33:29.014Z,61.76
2023-01-08T21:36:34.552Z,61.61
2023-01-08T21:39:38.475Z,61.08
2023-01-08T21:42:59.501Z,61.44
2023-01-08T21:46:04.076Z,61.34
2023-01-08T21:49:07.935Z,61.35
2023-01-08T21:52:30.764Z,61.14
2023-01-08T21:55:35.276Z,61.67
2023-01-08T21:58:39.034Z,61.19
2023-01-08T22:01:42.875Z,61.60
2023-01-08T22:04:47.413Z,61.35
2023-01-08T22:07:52.743Z,60.84
2023-01-08T22:10:56.653Z,61.01
2023-01-08T22:14:00.365Z,61.24
2023-01-08T22:17:08.652Z,62.10
2023-01-08T22:20:13.685Z,61.09
2023-01-08T22:23:19.043Z,62.71
2023-01-08T22:26:22.804Z,62.52
2023-01-08T22:29:26.733Z,62.28
2023-01-08T22:32:30.625Z,62.10
2023-01-08T22:35:34.562Z,62.29
2023-01-08T22:38:40.105Z,62.06
2023-01-08T22:41:44.732Z,62.97
2023-01-08T22:44:50.584Z,62.74
2023-01-08T22:47:54.418Z,62.64
2023-01-08T22:51:03.810Z,62.40
2023-01-08T22:54:09.124Z,62.31
2023-01-08T22:57:12.904Z,62.40
2023-01-08T23:00:17.539Z,62.70
2023-01-08T23:03:21.455Z,62.69
2023-01-08T23:06:27.591Z,62.64
2023-01-08T23:09:32.899Z,62.20
2023-01-08T23:12:36.785Z,62.79
2023-01-08T23:15:40.593Z,63.33
2023-01-08T23:18:44.925Z,63.14
2023-01-08T23:21:48.672Z,63.44
2023-01-08T23:24:53.934Z,63.50
2023-01-08T23:27:57.791Z,64.32
2023-01-08T23:31:02.015Z,64.23
2023-01-08T23:34:06.245Z,65.08
2023-01-08T23:37:10.036Z,65.30
2023-01-08T23:40:16.280Z,66.04
2023-01-08T23:43:20.190Z,65.33
2023-01-08T23:46:24.049Z,65.56
2023-01-08T23:49:27.853Z,65.46
2023-01-08T23:52:31.522Z,65.40
2023-01-08T23:55:36.903Z,65.42
2023-01-08T23:58:40.854Z,64.97
